sensor_id;sensor_type;location;lat;lon;timestamp;temperature;humidity
71128;SHT30;59249;59.736;30.568;2023-07-02T00:00:42;16.79;84.33
71128;SHT30;59249;59.736;30.568;2023-07-02T00:03:11;16.75;84.78
71128;SHT30;59249;59.736;30.568;2023-07-02T00:05:40;16.57;84.99
71128;SHT30;59249;59.736;30.568;2023-07-02T00:08:09;16.61;84.79
71128;SHT30;59249;59.736;30.568;2023-07-02T00:10:39;16.59;84.94
71128;SHT30;59249;59.736;30.568;2023-07-02T00:13:08;16.58;85.07
71128;SHT30;59249;59.736;30.568;2023-07-02T00:15:37;16.52;85.49
71128;SHT30;59249;59.736;30.568;2023-07-02T00:18:05;16.51;85.48
71128;SHT30;59249;59.736;30.568;2023-07-02T00:20:34;16.49;85.81
71128;SHT30;59249;59.736;30.568;2023-07-02T00:23:05;16.45;85.97
71128;SHT30;59249;59.736;30.568;2023-07-02T00:25:36;16.47;86.09
71128;SHT30;59249;59.736;30.568;2023-07-02T00:28:07;16.38;86.18
71128;SHT30;59249;59.736;30.568;2023-07-02T00:30:35;16.44;86.27
71128;SHT30;59249;59.736;30.568;2023-07-02T00:33:04;16.42;86.26
71128;SHT30;59249;59.736;30.568;2023-07-02T00:35:34;16.41;86.18
71128;SHT30;59249;59.736;30.568;2023-07-02T00:38:03;16.41;85.91
71128;SHT30;59249;59.736;30.568;2023-07-02T00:40:31;16.42;85.85
71128;SHT30;59249;59.736;30.568;2023-07-02T00:43:00;16.46;85.51
71128;SHT30;59249;59.736;30.568;2023-07-02T00:45:30;16.42;85.57
71128;SHT30;59249;59.736;30.568;2023-07-02T00:47:59;16.41;85.75
71128;SHT30;59249;59.736;30.568;2023-07-02T00:50:29;16.48;85.72
71128;SHT30;59249;59.736;30.568;2023-07-02T00:52:58;16.44;85.93
71128;SHT30;59249;59.736;30.568;2023-07-02T00:55:27;16.47;85.88
71128;SHT30;59249;59.736;30.568;2023-07-02T00:57:55;16.43;85.89
71128;SHT30;59249;59.736;30.568;2023-07-02T01:00:25;16.43;85.61
71128;SHT30;59249;59.736;30.568;2023-07-02T01:02:56;16.45;85.48
71128;SHT30;59249;59.736;30.568;2023-07-02T01:05:27;16.43;85.48
71128;SHT30;59249;59.736;30.568;2023-07-02T01:08:03;16.41;85.19
71128;SHT30;59249;59.736;30.568;2023-07-02T01:10:33;16.47;84.90
71128;SHT30;59249;59.736;30.568;2023-07-02T01:13:09;16.39;85.31
71128;SHT30;59249;59.736;30.568;2023-07-02T01:15:39;16.33;85.19
71128;SHT30;59249;59.736;30.568;2023-07-02T01:18:12;16.34;85.30
71128;SHT30;59249;59.736;30.568;2023-07-02T01:20:43;16.30;85.24
71128;SHT30;59249;59.736;30.568;2023-07-02T01:23:15;16.27;85.30
71128;SHT30;59249;59.736;30.568;2023-07-02T01:25:44;16.28;85.19
71128;SHT30;59249;59.736;30.568;2023-07-02T01:28:13;16.21;85.23
71128;SHT30;59249;59.736;30.568;2023-07-02T01:30:42;16.20;85.16
71128;SHT30;59249;59.736;30.568;2023-07-02T01:33:11;16.12;85.27
71128;SHT30;59249;59.736;30.568;2023-07-02T01:35:39;16.10;85.40
71128;SHT30;59249;59.736;30.568;2023-07-02T01:38:10;16.06;85.30
71128;SHT30;59249;59.736;30.568;2023-07-02T01:40:39;15.97;85.53
71128;SHT30;59249;59.736;30.568;2023-07-02T01:43:08;16.05;85.31
71128;SHT30;59249;59.736;30.568;2023-07-02T01:45:38;16.05;85.17
71128;SHT30;59249;59.736;30.568;2023-07-02T01:48:07;16.23;84.90
71128;SHT30;59249;59.736;30.568;2023-07-02T01:50:35;16.44;83.82
71128;SHT30;59249;59.736;30.568;2023-07-02T01:53:04;16.71;83.10
71128;SHT30;59249;59.736;30.568;2023-07-02T01:55:35;17.03;82.30
71128;SHT30;59249;59.736;30.568;2023-07-02T01:58:04;17.18;81.80
71128;SHT30;59249;59.736;30.568;2023-07-02T02:00:32;17.34;81.57
71128;SHT30;59249;59.736;30.568;2023-07-02T02:03:01;17.45;81.08
71128;SHT30;59249;59.736;30.568;2023-07-02T02:05:30;17.56;80.72
71128;SHT30;59249;59.736;30.568;2023-07-02T02:07:59;17.63;80.13
71128;SHT30;59249;59.736;30.568;2023-07-02T02:10:28;17.76;79.85
71128;SHT30;59249;59.736;30.568;2023-07-02T02:12:58;17.93;79.10
71128;SHT30;59249;59.736;30.568;2023-07-02T02:15:27;18.03;78.77
71128;SHT30;59249;59.736;30.568;2023-07-02T02:17:56;18.31;78.50
71128;SHT30;59249;59.736;30.568;2023-07-02T02:20:26;18.24;78.25
71128;SHT30;59249;59.736;30.568;2023-07-02T02:22:55;18.40;77.95
71128;SHT30;59249;59.736;30.568;2023-07-02T02:25:24;18.43;77.77
71128;SHT30;59249;59.736;30.568;2023-07-02T02:27:53;18.59;77.48
71128;SHT30;59249;59.736;30.568;2023-07-02T02:30:23;18.57;77.09
71128;SHT30;59249;59.736;30.568;2023-07-02T02:32:52;18.45;77.40
71128;SHT30;59249;59.736;30.568;2023-07-02T02:35:22;18.23;77.91
71128;SHT30;59249;59.736;30.568;2023-07-02T02:37:51;18.02;78.25
71128;SHT30;59249;59.736;30.568;2023-07-02T02:40:23;17.80;78.70
71128;SHT30;59249;59.736;30.568;2023-07-02T02:42:54;17.62;79.58
71128;SHT30;59249;59.736;30.568;2023-07-02T02:45:26;17.50;79.94
71128;SHT30;59249;59.736;30.568;2023-07-02T02:47:59;17.35;80.40
71128;SHT30;59249;59.736;30.568;2023-07-02T02:50:28;17.25;80.64
71128;SHT30;59249;59.736;30.568;2023-07-02T02:52:57;17.17;80.97
71128;SHT30;59249;59.736;30.568;2023-07-02T02:55:26;17.02;81.53
71128;SHT30;59249;59.736;30.568;2023-07-02T02:57:55;16.88;81.83
71128;SHT30;59249;59.736;30.568;2023-07-02T03:00:25;16.86;81.90
71128;SHT30;59249;59.736;30.568;2023-07-02T03:02:54;16.79;82.17
71128;SHT30;59249;59.736;30.568;2023-07-02T03:05:23;16.84;82.15
71128;SHT30;59249;59.736;30.568;2023-07-02T03:07:52;16.76;82.24
71128;SHT30;59249;59.736;30.568;2023-07-02T03:10:21;16.81;82.17
71128;SHT30;59249;59.736;30.568;2023-07-02T03:12:50;16.87;81.98
71128;SHT30;59249;59.736;30.568;2023-07-02T03:15:19;16.87;81.99
71128;SHT30;59249;59.736;30.568;2023-07-02T03:17:49;16.98;82.00
71128;SHT30;59249;59.736;30.568;2023-07-02T03:20:18;17.03;81.77
71128;SHT30;59249;59.736;30.568;2023-07-02T03:22:46;17.10;81.45
71128;SHT30;59249;59.736;30.568;2023-07-02T03:25:16;17.04;81.63
71128;SHT30;59249;59.736;30.568;2023-07-02T03:27:46;17.13;81.45
71128;SHT30;59249;59.736;30.568;2023-07-02T03:30:15;17.07;81.43
71128;SHT30;59249;59.736;30.568;2023-07-02T03:32:43;17.00;81.70
71128;SHT30;59249;59.736;30.568;2023-07-02T03:35:16;17.02;81.55
71128;SHT30;59249;59.736;30.568;2023-07-02T03:37:45;17.02;81.53
71128;SHT30;59249;59.736;30.568;2023-07-02T03:40:15;17.04;81.50
71128;SHT30;59249;59.736;30.568;2023-07-02T03:42:46;17.02;81.64
71128;SHT30;59249;59.736;30.568;2023-07-02T03:45:16;17.09;81.51
71128;SHT30;59249;59.736;30.568;2023-07-02T03:47:47;17.14;81.34
71128;SHT30;59249;59.736;30.568;2023-07-02T03:50:20;17.24;81.15
71128;SHT30;59249;59.736;30.568;2023-07-02T03:52:50;17.30;81.03
71128;SHT30;59249;59.736;30.568;2023-07-02T03:55:19;17.31;81.18
71128;SHT30;59249;59.736;30.568;2023-07-02T03:57:48;17.46;80.91
71128;SHT30;59249;59.736;30.568;2023-07-02T04:00:17;17.50;80.86
71128;SHT30;59249;59.736;30.568;2023-07-02T04:02:46;17.48;80.84
71128;SHT30;59249;59.736;30.568;2023-07-02T04:05:17;17.62;80.55
71128;SHT30;59249;59.736;30.568;2023-07-02T04:07:46;17.75;80.45
71128;SHT30;59249;59.736;30.568;2023-07-02T04:10:16;17.77;79.92
71128;SHT30;59249;59.736;30.568;2023-07-02T04:12:45;17.80;79.74
71128;SHT30;59249;59.736;30.568;2023-07-02T04:15:14;17.83;79.74
71128;SHT30;59249;59.736;30.568;2023-07-02T04:17:43;17.82;79.77
71128;SHT30;59249;59.736;30.568;2023-07-02T04:20:12;17.91;79.78
71128;SHT30;59249;59.736;30.568;2023-07-02T04:22:42;17.96;79.65
71128;SHT30;59249;59.736;30.568;2023-07-02T04:25:11;18.07;79.69
71128;SHT30;59249;59.736;30.568;2023-07-02T04:27:54;18.17;79.51
71128;SHT30;59249;59.736;30.568;2023-07-02T04:30:25;18.27;79.45
71128;SHT30;59249;59.736;30.568;2023-07-02T04:32:53;18.33;79.38
71128;SHT30;59249;59.736;30.568;2023-07-02T04:35:22;18.31;79.26
71128;SHT30;59249;59.736;30.568;2023-07-02T04:37:53;18.29;79.11
71128;SHT30;59249;59.736;30.568;2023-07-02T04:40:21;18.42;79.19
71128;SHT30;59249;59.736;30.568;2023-07-02T04:42:50;18.42;78.86
71128;SHT30;59249;59.736;30.568;2023-07-02T04:45:26;18.56;78.91
71128;SHT30;59249;59.736;30.568;2023-07-02T04:47:59;18.50;78.43
71128;SHT30;59249;59.736;30.568;2023-07-02T04:50:31;18.51;78.48
71128;SHT30;59249;59.736;30.568;2023-07-02T04:53:01;18.52;78.54
71128;SHT30;59249;59.736;30.568;2023-07-02T04:55:30;18.59;78.48
71128;SHT30;59249;59.736;30.568;2023-07-02T04:57:58;18.75;78.25
71128;SHT30;59249;59.736;30.568;2023-07-02T05:00:27;18.82;78.19
71128;SHT30;59249;59.736;30.568;2023-07-02T05:02:56;18.94;78.00
71128;SHT30;59249;59.736;30.568;2023-07-02T05:05:25;19.00;77.68
71128;SHT30;59249;59.736;30.568;2023-07-02T05:07:54;18.94;77.61
71128;SHT30;59249;59.736;30.568;2023-07-02T05:10:25;19.01;77.40
71128;SHT30;59249;59.736;30.568;2023-07-02T05:12:55;18.92;77.51
71128;SHT30;59249;59.736;30.568;2023-07-02T05:15:23;18.88;77.54
71128;SHT30;59249;59.736;30.568;2023-07-02T05:17:53;18.94;77.58
71128;SHT30;59249;59.736;30.568;2023-07-02T05:20:22;18.86;77.56
71128;SHT30;59249;59.736;30.568;2023-07-02T05:22:51;18.96;77.69
71128;SHT30;59249;59.736;30.568;2023-07-02T05:25:21;18.98;77.73
71128;SHT30;59249;59.736;30.568;2023-07-02T05:27:53;18.94;77.72
71128;SHT30;59249;59.736;30.568;2023-07-02T05:30:22;19.00;77.71
71128;SHT30;59249;59.736;30.568;2023-07-02T05:32:51;19.03;77.61
71128;SHT30;59249;59.736;30.568;2023-07-02T05:35:22;19.16;77.08
71128;SHT30;59249;59.736;30.568;2023-07-02T05:37:51;19.23;76.67
71128;SHT30;59249;59.736;30.568;2023-07-02T05:40:20;19.19;76.73
71128;SHT30;59249;59.736;30.568;2023-07-02T05:42:53;19.21;76.82
71128;SHT30;59249;59.736;30.568;2023-07-02T05:45:23;19.23;76.70
71128;SHT30;59249;59.736;30.568;2023-07-02T05:47:52;19.31;76.31
71128;SHT30;59249;59.736;30.568;2023-07-02T05:50:20;19.40;76.33
71128;SHT30;59249;59.736;30.568;2023-07-02T05:52:52;19.63;75.79
71128;SHT30;59249;59.736;30.568;2023-07-02T05:55:20;19.84;75.70
71128;SHT30;59249;59.736;30.568;2023-07-02T05:57:49;19.92;75.44
71128;SHT30;59249;59.736;30.568;2023-07-02T06:00:20;20.14;75.36
71128;SHT30;59249;59.736;30.568;2023-07-02T06:02:49;20.27;74.59
71128;SHT30;59249;59.736;30.568;2023-07-02T06:05:18;20.32;74.36
71128;SHT30;59249;59.736;30.568;2023-07-02T06:07:47;20.32;74.16
71128;SHT30;59249;59.736;30.568;2023-07-02T06:10:16;20.40;74.13
71128;SHT30;59249;59.736;30.568;2023-07-02T06:12:46;20.51;73.47
71128;SHT30;59249;59.736;30.568;2023-07-02T06:15:14;20.54;72.90
71128;SHT30;59249;59.736;30.568;2023-07-02T06:17:45;20.54;72.64
71128;SHT30;59249;59.736;30.568;2023-07-02T06:20:14;20.64;72.82
71128;SHT30;59249;59.736;30.568;2023-07-02T06:22:43;20.77;72.89
71128;SHT30;59249;59.736;30.568;2023-07-02T06:25:13;20.93;72.23
71128;SHT30;59249;59.736;30.568;2023-07-02T06:27:41;20.96;71.77
71128;SHT30;59249;59.736;30.568;2023-07-02T06:30:11;21.06;72.04
71128;SHT30;59249;59.736;30.568;2023-07-02T06:32:40;20.92;70.87
71128;SHT30;59249;59.736;30.568;2023-07-02T06:35:10;20.98;71.00
71128;SHT30;59249;59.736;30.568;2023-07-02T06:37:39;21.20;70.87
71128;SHT30;59249;59.736;30.568;2023-07-02T06:40:08;21.44;70.58
71128;SHT30;59249;59.736;30.568;2023-07-02T06:42:37;21.38;70.30
71128;SHT30;59249;59.736;30.568;2023-07-02T06:45:07;21.30;69.88
71128;SHT30;59249;59.736;30.568;2023-07-02T06:47:36;21.24;69.87
71128;SHT30;59249;59.736;30.568;2023-07-02T06:50:11;21.22;70.53
71128;SHT30;59249;59.736;30.568;2023-07-02T06:52:40;21.15;69.65
71128;SHT30;59249;59.736;30.568;2023-07-02T06:55:09;21.10;69.94
71128;SHT30;59249;59.736;30.568;2023-07-02T06:57:43;21.08;69.88
71128;SHT30;59249;59.736;30.568;2023-07-02T07:00:14;21.05;69.38
71128;SHT30;59249;59.736;30.568;2023-07-02T07:02:43;20.99;69.32
71128;SHT30;59249;59.736;30.568;2023-07-02T07:05:13;20.96;69.57
71128;SHT30;59249;59.736;30.568;2023-07-02T07:07:42;20.89;69.73
71128;SHT30;59249;59.736;30.568;2023-07-02T07:10:10;20.78;69.72
71128;SHT30;59249;59.736;30.568;2023-07-02T07:12:39;20.68;69.53
71128;SHT30;59249;59.736;30.568;2023-07-02T07:15:10;20.73;69.46
71128;SHT30;59249;59.736;30.568;2023-07-02T07:17:39;20.73;69.46
71128;SHT30;59249;59.736;30.568;2023-07-02T07:20:09;20.73;69.46
71128;SHT30;59249;59.736;30.568;2023-07-02T07:22:39;20.85;69.68
71128;SHT30;59249;59.736;30.568;2023-07-02T07:28:52;20.77;69.15
71128;SHT30;59249;59.736;30.568;2023-07-02T07:31:24;20.77;69.10
71128;SHT30;59249;59.736;30.568;2023-07-02T07:33:53;20.55;68.57
71128;SHT30;59249;59.736;30.568;2023-07-02T07:36:22;20.56;69.19
71128;SHT30;59249;59.736;30.568;2023-07-02T07:38:52;20.72;69.52
71128;SHT30;59249;59.736;30.568;2023-07-02T07:41:23;20.90;68.47
71128;SHT30;59249;59.736;30.568;2023-07-02T07:43:55;21.03;67.95
71128;SHT30;59249;59.736;30.568;2023-07-02T07:46:24;21.08;68.17
71128;SHT30;59249;59.736;30.568;2023-07-02T07:48:55;21.17;67.94
71128;SHT30;59249;59.736;30.568;2023-07-02T07:51:23;21.24;67.39
71128;SHT30;59249;59.736;30.568;2023-07-02T07:53:55;21.41;67.24
71128;SHT30;59249;59.736;30.568;2023-07-02T07:56:24;21.56;66.50
71128;SHT30;59249;59.736;30.568;2023-07-02T07:58:53;21.66;66.09
71128;SHT30;59249;59.736;30.568;2023-07-02T08:01:22;21.95;65.24
71128;SHT30;59249;59.736;30.568;2023-07-02T08:03:50;22.03;64.54
71128;SHT30;59249;59.736;30.568;2023-07-02T08:06:19;21.98;64.68
71128;SHT30;59249;59.736;30.568;2023-07-02T08:08:48;21.96;64.34
71128;SHT30;59249;59.736;30.568;2023-07-02T08:11:18;22.01;64.01
71128;SHT30;59249;59.736;30.568;2023-07-02T08:13:47;22.10;63.45
71128;SHT30;59249;59.736;30.568;2023-07-02T08:16:17;22.15;63.11
71128;SHT30;59249;59.736;30.568;2023-07-02T08:18:46;22.12;63.12
71128;SHT30;59249;59.736;30.568;2023-07-02T08:21:15;21.96;61.73
71128;SHT30;59249;59.736;30.568;2023-07-02T08:23:44;21.95;62.20
71128;SHT30;59249;59.736;30.568;2023-07-02T08:26:12;21.97;62.39
71128;SHT30;59249;59.736;30.568;2023-07-02T08:28:43;21.95;61.81
71128;SHT30;59249;59.736;30.568;2023-07-02T08:31:12;22.06;62.22
71128;SHT30;59249;59.736;30.568;2023-07-02T08:33:40;21.98;61.67
71128;SHT30;59249;59.736;30.568;2023-07-02T08:36:09;21.85;61.88
71128;SHT30;59249;59.736;30.568;2023-07-02T08:38:38;21.86;62.19
71128;SHT30;59249;59.736;30.568;2023-07-02T08:41:09;21.92;62.53
71128;SHT30;59249;59.736;30.568;2023-07-02T08:47:26;22.39;63.51
71128;SHT30;59249;59.736;30.568;2023-07-02T08:49:56;22.59;61.48
71128;SHT30;59249;59.736;30.568;2023-07-02T08:52:24;22.72;61.21
71128;SHT30;59249;59.736;30.568;2023-07-02T08:54:53;22.83;61.58
71128;SHT30;59249;59.736;30.568;2023-07-02T08:57:22;22.85;61.07
71128;SHT30;59249;59.736;30.568;2023-07-02T08:59:51;22.98;61.12
71128;SHT30;59249;59.736;30.568;2023-07-02T09:02:32;22.92;59.88
71128;SHT30;59249;59.736;30.568;2023-07-02T09:05:02;23.05;59.19
71128;SHT30;59249;59.736;30.568;2023-07-02T09:07:44;23.08;59.65
71128;SHT30;59249;59.736;30.568;2023-07-02T09:10:26;22.97;58.71
71128;SHT30;59249;59.736;30.568;2023-07-02T09:13:06;23.12;58.73
71128;SHT30;59249;59.736;30.568;2023-07-02T09:15:40;23.19;58.08
71128;SHT30;59249;59.736;30.568;2023-07-02T09:18:19;23.03;57.28
71128;SHT30;59249;59.736;30.568;2023-07-02T09:20:51;23.00;58.17
71128;SHT30;59249;59.736;30.568;2023-07-02T09:23:20;22.88;57.84
71128;SHT30;59249;59.736;30.568;2023-07-02T09:25:51;22.76;57.94
71128;SHT30;59249;59.736;30.568;2023-07-02T09:28:21;22.76;58.65
71128;SHT30;59249;59.736;30.568;2023-07-02T09:30:53;22.65;59.11
71128;SHT30;59249;59.736;30.568;2023-07-02T09:33:24;22.59;58.72
71128;SHT30;59249;59.736;30.568;2023-07-02T09:35:53;22.61;58.82
71128;SHT30;59249;59.736;30.568;2023-07-02T09:38:23;22.58;58.21
71128;SHT30;59249;59.736;30.568;2023-07-02T09:40:53;22.56;57.27
71128;SHT30;59249;59.736;30.568;2023-07-02T09:43:24;22.69;57.22
71128;SHT30;59249;59.736;30.568;2023-07-02T09:45:55;22.84;57.28
71128;SHT30;59249;59.736;30.568;2023-07-02T09:48:29;22.90;56.95
71128;SHT30;59249;59.736;30.568;2023-07-02T09:51:00;22.96;56.87
71128;SHT30;59249;59.736;30.568;2023-07-02T09:53:30;23.04;56.30
71128;SHT30;59249;59.736;30.568;2023-07-02T09:55:59;23.09;56.26
71128;SHT30;59249;59.736;30.568;2023-07-02T09:58:29;23.23;56.59
71128;SHT30;59249;59.736;30.568;2023-07-02T10:00:59;23.24;55.57
71128;SHT30;59249;59.736;30.568;2023-07-02T10:03:30;23.35;55.60
71128;SHT30;59249;59.736;30.568;2023-07-02T10:06:04;23.23;55.79
71128;SHT30;59249;59.736;30.568;2023-07-02T10:08:33;23.35;56.09
71128;SHT30;59249;59.736;30.568;2023-07-02T10:11:10;23.32;55.48
71128;SHT30;59249;59.736;30.568;2023-07-02T10:13:40;23.39;56.05
71128;SHT30;59249;59.736;30.568;2023-07-02T10:16:09;23.38;55.67
71128;SHT30;59249;59.736;30.568;2023-07-02T10:18:40;23.37;56.39
71128;SHT30;59249;59.736;30.568;2023-07-02T10:21:16;23.38;56.69
71128;SHT30;59249;59.736;30.568;2023-07-02T10:23:46;23.41;56.41
71128;SHT30;59249;59.736;30.568;2023-07-02T10:26:16;23.35;56.44
71128;SHT30;59249;59.736;30.568;2023-07-02T10:28:57;23.49;56.30
71128;SHT30;59249;59.736;30.568;2023-07-02T10:31:26;23.56;56.09
71128;SHT30;59249;59.736;30.568;2023-07-02T10:33:56;23.50;56.09
71128;SHT30;59249;59.736;30.568;2023-07-02T10:36:25;23.39;56.66
71128;SHT30;59249;59.736;30.568;2023-07-02T10:39:01;23.38;56.50
71128;SHT30;59249;59.736;30.568;2023-07-02T10:41:36;23.29;56.00
71128;SHT30;59249;59.736;30.568;2023-07-02T10:44:09;23.25;56.42
71128;SHT30;59249;59.736;30.568;2023-07-02T10:46:45;23.33;56.70
71128;SHT30;59249;59.736;30.568;2023-07-02T10:49:18;23.30;57.31
71128;SHT30;59249;59.736;30.568;2023-07-02T10:51:57;23.24;57.45
71128;SHT30;59249;59.736;30.568;2023-07-02T10:54:37;23.36;57.49
71128;SHT30;59249;59.736;30.568;2023-07-02T10:57:07;23.45;57.89
71128;SHT30;59249;59.736;30.568;2023-07-02T10:59:36;23.41;57.25
71128;SHT30;59249;59.736;30.568;2023-07-02T11:02:05;23.49;57.36
71128;SHT30;59249;59.736;30.568;2023-07-02T11:04:36;23.44;57.82
71128;SHT30;59249;59.736;30.568;2023-07-02T11:07:06;23.35;57.73
71128;SHT30;59249;59.736;30.568;2023-07-02T11:09:34;23.38;58.09
71128;SHT30;59249;59.736;30.568;2023-07-02T11:12:04;23.37;58.63
71128;SHT30;59249;59.736;30.568;2023-07-02T11:14:34;23.30;58.45
71128;SHT30;59249;59.736;30.568;2023-07-02T11:17:06;23.33;58.19
71128;SHT30;59249;59.736;30.568;2023-07-02T11:19:36;23.26;58.42
71128;SHT30;59249;59.736;30.568;2023-07-02T11:22:08;23.22;58.89
71128;SHT30;59249;59.736;30.568;2023-07-02T11:24:37;23.43;58.62
71128;SHT30;59249;59.736;30.568;2023-07-02T11:27:08;23.53;58.68
71128;SHT30;59249;59.736;30.568;2023-07-02T11:29:37;23.75;58.72
71128;SHT30;59249;59.736;30.568;2023-07-02T11:32:07;23.82;58.67
71128;SHT30;59249;59.736;30.568;2023-07-02T11:34:39;23.71;59.26
71128;SHT30;59249;59.736;30.568;2023-07-02T11:37:08;23.38;60.93
71128;SHT30;59249;59.736;30.568;2023-07-02T11:39:36;22.88;63.50
71128;SHT30;59249;59.736;30.568;2023-07-02T11:42:06;22.40;64.61
71128;SHT30;59249;59.736;30.568;2023-07-02T11:44:34;22.05;65.60
71128;SHT30;59249;59.736;30.568;2023-07-02T11:47:04;22.13;66.32
71128;SHT30;59249;59.736;30.568;2023-07-02T11:49:34;22.15;66.83
71128;SHT30;59249;59.736;30.568;2023-07-02T11:52:04;22.27;66.53
71128;SHT30;59249;59.736;30.568;2023-07-02T11:54:33;22.41;66.87
71128;SHT30;59249;59.736;30.568;2023-07-02T11:57:02;22.41;66.85
71128;SHT30;59249;59.736;30.568;2023-07-02T11:59:31;22.49;66.55
71128;SHT30;59249;59.736;30.568;2023-07-02T12:02:00;22.63;66.78
71128;SHT30;59249;59.736;30.568;2023-07-02T12:04:29;22.73;66.52
71128;SHT30;59249;59.736;30.568;2023-07-02T12:06:58;22.83;66.21
71128;SHT30;59249;59.736;30.568;2023-07-02T12:09:32;23.01;65.54
71128;SHT30;59249;59.736;30.568;2023-07-02T12:12:00;23.03;65.43
71128;SHT30;59249;59.736;30.568;2023-07-02T12:14:29;23.12;65.20
71128;SHT30;59249;59.736;30.568;2023-07-02T12:16:58;23.18;64.77
71128;SHT30;59249;59.736;30.568;2023-07-02T12:19:31;23.24;64.73
71128;SHT30;59249;59.736;30.568;2023-07-02T12:22:00;23.20;64.43
71128;SHT30;59249;59.736;30.568;2023-07-02T12:24:30;23.36;64.19
71128;SHT30;59249;59.736;30.568;2023-07-02T12:26:59;23.46;64.21
71128;SHT30;59249;59.736;30.568;2023-07-02T12:29:28;23.51;63.83
71128;SHT30;59249;59.736;30.568;2023-07-02T12:31:57;23.51;63.84
71128;SHT30;59249;59.736;30.568;2023-07-02T12:34:25;23.38;63.99
71128;SHT30;59249;59.736;30.568;2023-07-02T12:36:55;23.50;64.14
71128;SHT30;59249;59.736;30.568;2023-07-02T12:39:23;23.43;63.84
71128;SHT30;59249;59.736;30.568;2023-07-02T12:41:55;23.52;63.72
71128;SHT30;59249;59.736;30.568;2023-07-02T12:44:28;23.59;63.73
71128;SHT30;59249;59.736;30.568;2023-07-02T12:46:57;23.70;63.66
71128;SHT30;59249;59.736;30.568;2023-07-02T12:49:26;23.64;63.56
71128;SHT30;59249;59.736;30.568;2023-07-02T12:51:55;23.64;63.27
71128;SHT30;59249;59.736;30.568;2023-07-02T12:54:23;23.60;62.24
71128;SHT30;59249;59.736;30.568;2023-07-02T12:56:57;23.40;61.07
71128;SHT30;59249;59.736;30.568;2023-07-02T12:59:26;23.31;60.64
71128;SHT30;59249;59.736;30.568;2023-07-02T13:01:55;23.29;60.20
71128;SHT30;59249;59.736;30.568;2023-07-02T13:04:24;23.25;59.83
71128;SHT30;59249;59.736;30.568;2023-07-02T13:06:59;23.13;59.81
71128;SHT30;59249;59.736;30.568;2023-07-02T13:09:28;23.19;59.74
71128;SHT30;59249;59.736;30.568;2023-07-02T13:11:58;23.18;59.68
71128;SHT30;59249;59.736;30.568;2023-07-02T13:14:36;23.11;59.68
71128;SHT30;59249;59.736;30.568;2023-07-02T13:17:05;22.92;59.60
71128;SHT30;59249;59.736;30.568;2023-07-02T13:19:34;22.87;59.46
71128;SHT30;59249;59.736;30.568;2023-07-02T13:22:08;22.96;59.48
71128;SHT30;59249;59.736;30.568;2023-07-02T13:24:39;22.93;59.77
71128;SHT30;59249;59.736;30.568;2023-07-02T13:27:15;22.74;59.81
71128;SHT30;59249;59.736;30.568;2023-07-02T13:29:47;22.85;60.08
71128;SHT30;59249;59.736;30.568;2023-07-02T13:32:15;22.88;59.99
71128;SHT30;59249;59.736;30.568;2023-07-02T13:34:44;22.91;60.15
71128;SHT30;59249;59.736;30.568;2023-07-02T13:37:16;22.80;59.80
71128;SHT30;59249;59.736;30.568;2023-07-02T13:39:46;22.87;59.76
71128;SHT30;59249;59.736;30.568;2023-07-02T13:42:16;22.83;60.01
71128;SHT30;59249;59.736;30.568;2023-07-02T13:44:45;22.76;60.61
71128;SHT30;59249;59.736;30.568;2023-07-02T13:47:14;22.66;61.32
71128;SHT30;59249;59.736;30.568;2023-07-02T13:49:44;22.51;62.03
71128;SHT30;59249;59.736;30.568;2023-07-02T13:52:13;22.42;62.52
71128;SHT30;59249;59.736;30.568;2023-07-02T13:54:42;22.36;62.33
71128;SHT30;59249;59.736;30.568;2023-07-02T13:57:11;22.22;62.29
71128;SHT30;59249;59.736;30.568;2023-07-02T13:59:41;22.21;62.85
71128;SHT30;59249;59.736;30.568;2023-07-02T14:02:10;22.20;62.83
71128;SHT30;59249;59.736;30.568;2023-07-02T14:04:39;22.29;63.00
71128;SHT30;59249;59.736;30.568;2023-07-02T14:07:07;22.43;62.54
71128;SHT30;59249;59.736;30.568;2023-07-02T14:09:36;22.47;62.09
71128;SHT30;59249;59.736;30.568;2023-07-02T14:12:06;22.57;61.72
71128;SHT30;59249;59.736;30.568;2023-07-02T14:14:35;22.61;61.74
71128;SHT30;59249;59.736;30.568;2023-07-02T14:17:06;22.72;61.45
71128;SHT30;59249;59.736;30.568;2023-07-02T14:19:34;22.70;61.43
71128;SHT30;59249;59.736;30.568;2023-07-02T14:22:03;22.83;61.03
71128;SHT30;59249;59.736;30.568;2023-07-02T14:24:34;22.96;60.25
71128;SHT30;59249;59.736;30.568;2023-07-02T14:27:04;23.01;60.10
71128;SHT30;59249;59.736;30.568;2023-07-02T14:29:33;23.04;60.44
71128;SHT30;59249;59.736;30.568;2023-07-02T14:32:05;23.01;60.49
71128;SHT30;59249;59.736;30.568;2023-07-02T14:34:35;23.02;60.17
71128;SHT30;59249;59.736;30.568;2023-07-02T14:37:04;23.05;60.13
71128;SHT30;59249;59.736;30.568;2023-07-02T14:39:33;23.02;59.89
71128;SHT30;59249;59.736;30.568;2023-07-02T14:42:03;23.03;60.05
71128;SHT30;59249;59.736;30.568;2023-07-02T14:44:33;23.07;59.74
71128;SHT30;59249;59.736;30.568;2023-07-02T14:47:05;23.09;60.08
71128;SHT30;59249;59.736;30.568;2023-07-02T14:49:34;23.03;59.85
71128;SHT30;59249;59.736;30.568;2023-07-02T14:52:04;22.92;59.89
71128;SHT30;59249;59.736;30.568;2023-07-02T14:54:34;22.95;60.08
71128;SHT30;59249;59.736;30.568;2023-07-02T14:57:04;22.89;59.99
71128;SHT30;59249;59.736;30.568;2023-07-02T14:59:34;22.91;59.94
71128;SHT30;59249;59.736;30.568;2023-07-02T15:02:05;22.86;60.38
71128;SHT30;59249;59.736;30.568;2023-07-02T15:04:34;22.77;60.57
71128;SHT30;59249;59.736;30.568;2023-07-02T15:07:04;22.66;60.65
71128;SHT30;59249;59.736;30.568;2023-07-02T15:09:33;22.66;60.77
71128;SHT30;59249;59.736;30.568;2023-07-02T15:12:02;22.59;60.78
71128;SHT30;59249;59.736;30.568;2023-07-02T15:14:33;22.50;60.86
71128;SHT30;59249;59.736;30.568;2023-07-02T15:17:02;22.44;61.32
71128;SHT30;59249;59.736;30.568;2023-07-02T15:19:33;22.46;61.88
71128;SHT30;59249;59.736;30.568;2023-07-02T15:22:02;22.45;62.06
71128;SHT30;59249;59.736;30.568;2023-07-02T15:24:31;22.49;62.14
71128;SHT30;59249;59.736;30.568;2023-07-02T15:27:04;22.53;62.44
71128;SHT30;59249;59.736;30.568;2023-07-02T15:29:33;22.49;62.59
71128;SHT30;59249;59.736;30.568;2023-07-02T15:32:03;22.51;62.32
71128;SHT30;59249;59.736;30.568;2023-07-02T15:34:33;22.49;62.87
71128;SHT30;59249;59.736;30.568;2023-07-02T15:37:02;22.51;63.17
71128;SHT30;59249;59.736;30.568;2023-07-02T15:39:31;22.52;63.02